Time;durP1;ratioP1;P1;durP2;ratioP2;P2;SDS_P1;SDS_P2;PMS_P1;PMS_P2;Temp;Humidity;BMP_temperature;BMP_pressure;BME280_temperature;BME280_humidity;BME280_pressure;Samples;Min_cycle;Max_cycle;Signal;HPM_P1;HPM_P2
2022/10/01 00:01:55;;;;;;;0.00;0.00;;;;;;;10.66;77.48;99649.03;5010631;28;20344;-75
2022/10/01 00:04:21;;;;;;;0.10;0.10;;;;;;;10.62;77.61;99643.44;4972919;28;1113771;-76
2022/10/01 00:06:46;;;;;;;0.03;0.03;;;;;;;10.63;77.90;99642.31;5011060;28;20208;-76
2022/10/01 00:09:12;;;;;;;0.83;0.40;;;;;;;10.66;77.67;99638.13;5011256;28;20187;-76
2022/10/01 00:11:37;;;;;;;0.00;0.00;;;;;;;10.64;77.93;99632.19;5011044;28;20189;-77
2022/10/01 00:14:02;;;;;;;0.00;0.00;;;;;;;10.66;77.95;99633.44;5010972;28;20176;-76
2022/10/01 00:16:30;;;;;;;0.00;0.00;;;;;;;10.58;78.86;99623.41;5010989;28;20549;-76
2022/10/01 00:18:57;;;;;;;0.00;0.00;;;;;;;10.53;79.22;99618.09;5011437;28;20177;-76
2022/10/01 00:21:28;;;;;;;0.20;0.20;;;;;;;10.50;79.92;99620.72;5010953;28;20248;-76
2022/10/01 00:24:01;;;;;;;0.00;0.00;;;;;;;10.29;80.40;99612.50;5011012;28;20184;-76
2022/10/01 00:26:29;;;;;;;0.00;0.00;;;;;;;10.15;81.69;99618.16;5010439;28;20212;-76
2022/10/01 00:28:57;;;;;;;0.00;0.00;;;;;;;10.16;81.42;99611.56;5010731;28;20711;-76
2022/10/01 00:31:24;;;;;;;0.00;0.00;;;;;;;10.08;82.43;99605.00;5010791;28;20175;-75
2022/10/01 00:33:53;;;;;;;0.00;0.00;;;;;;;10.09;81.76;99600.34;5011148;28;20679;-76
2022/10/01 00:36:19;;;;;;;0.00;0.00;;;;;;;10.08;82.01;99598.75;5010511;28;20231;-76
2022/10/01 00:38:46;;;;;;;0.00;0.00;;;;;;;10.07;81.62;99594.41;5010707;28;20602;-76
2022/10/01 00:41:11;;;;;;;0.00;0.00;;;;;;;10.14;81.16;99595.50;5010442;28;20177;-77
2022/10/01 00:43:42;;;;;;;0.20;0.20;;;;;;;10.13;81.10;99593.13;5011280;28;20571;-77
2022/10/01 00:46:43;;;;;;;0.03;0.03;;;;;;;10.23;80.61;99590.03;5010326;28;20242;-77
2022/10/01 00:49:14;;;;;;;0.00;0.00;;;;;;;10.16;80.23;99583.47;5010564;28;20184;-76
2022/10/01 00:51:44;;;;;;;0.00;0.00;;;;;;;10.20;80.19;99579.75;5010637;28;20172;-76
2022/10/01 00:54:15;;;;;;;0.00;0.00;;;;;;;10.28;79.98;99573.47;5010571;28;20247;-77
2022/10/01 00:56:43;;;;;;;0.00;0.00;;;;;;;10.20;80.31;99565.28;5010545;28;20194;-76
2022/10/01 00:59:09;;;;;;;0.00;0.00;;;;;;;10.27;79.81;99560.13;5010542;28;20203;-76
2022/10/01 01:01:36;;;;;;;0.00;0.00;;;;;;;10.14;79.96;99557.31;5010966;28;20180;-77
2022/10/01 01:04:02;;;;;;;0.00;0.00;;;;;;;10.23;79.51;99561.94;5012342;28;20198;-76
2022/10/01 01:06:28;;;;;;;0.30;0.30;;;;;;;10.21;80.05;99551.34;5014340;28;20208;-76
2022/10/01 01:08:54;;;;;;;0.00;0.00;;;;;;;10.34;79.53;99550.28;5014690;28;20546;-76
2022/10/01 01:11:54;;;;;;;4.03;0.83;;;;;;;10.31;80.00;99553.69;4996693;28;20180;-76
2022/10/01 01:14:40;;;;;;;0.00;0.00;;;;;;;10.38;79.43;99553.16;5014298;28;20172;-76
2022/10/01 01:17:12;;;;;;;0.40;0.40;;;;;;;10.41;79.48;99547.03;5014050;28;20263;-76
2022/10/01 01:19:37;;;;;;;0.10;0.10;;;;;;;10.39;79.03;99549.28;5014589;28;20176;-76
2022/10/01 01:22:06;;;;;;;0.83;0.83;;;;;;;10.37;79.07;99551.56;5014218;28;20219;-76
2022/10/01 01:24:43;;;;;;;0.00;0.00;;;;;;;10.48;78.53;99547.31;5014607;28;20180;-76
2022/10/01 01:27:25;;;;;;;0.00;0.00;;;;;;;10.46;77.90;99538.66;5013710;28;20219;-76
2022/10/01 01:30:03;;;;;;;0.40;0.40;;;;;;;10.51;77.96;99537.66;5014252;28;20185;-76
2022/10/01 01:32:41;;;;;;;0.00;0.00;;;;;;;10.51;77.71;99532.19;5013963;28;20180;-76
2022/10/01 01:35:10;;;;;;;0.50;0.50;;;;;;;10.52;78.65;99528.31;5014010;28;20192;-76
2022/10/01 01:37:41;;;;;;;0.00;0.00;;;;;;;10.50;78.47;99534.13;5013609;28;20180;-76
2022/10/01 01:40:10;;;;;;;0.00;0.00;;;;;;;10.41;79.00;99520.53;5013850;28;20188;-76
2022/10/01 01:42:40;;;;;;;0.00;0.00;;;;;;;10.20;80.57;99522.41;5013734;28;20183;-76
2022/10/01 01:45:10;;;;;;;0.50;0.50;;;;;;;10.05;81.23;99510.16;5013810;28;20187;-76
2022/10/01 01:47:40;;;;;;;0.00;0.00;;;;;;;9.99;82.22;99507.97;5013171;28;20556;-76
2022/10/01 01:50:07;;;;;;;0.20;0.20;;;;;;;9.88;82.53;99512.97;5013846;28;20287;-77
2022/10/01 01:52:33;;;;;;;0.00;0.00;;;;;;;9.94;83.28;99517.09;5013641;28;20252;-76
2022/10/01 01:55:01;;;;;;;0.00;0.00;;;;;;;9.63;83.82;99495.63;5013699;28;20180;-76
2022/10/01 01:57:26;;;;;;;0.00;0.00;;;;;;;9.68;84.32;99503.59;5013232;28;20168;-76
2022/10/01 01:59:53;;;;;;;0.00;0.00;;;;;;;9.55;85.33;99504.66;4995961;28;20169;-77
2022/10/01 02:02:25;;;;;;;0.00;0.00;;;;;;;9.52;85.58;99494.38;5013372;28;20256;-77
2022/10/01 02:04:55;;;;;;;0.00;0.00;;;;;;;9.44;86.11;99487.84;4995860;28;20176;-76
2022/10/01 02:07:35;;;;;;;0.00;0.00;;;;;;;9.46;86.22;99479.34;5013331;28;20208;-76
2022/10/01 02:10:35;;;;;;;0.00;0.00;;;;;;;9.70;85.73;99484.22;5013348;28;20180;-75
2022/10/01 02:13:26;;;;;;;0.00;0.00;;;;;;;9.48;86.81;99472.44;5013790;28;20179;-77
2022/10/01 02:16:13;;;;;;;4.83;0.40;;;;;;;9.54;85.97;99476.56;4997705;28;20173;-76
2022/10/01 02:18:52;;;;;;;0.20;0.20;;;;;;;9.68;85.60;99470.06;4995619;28;20187;-76
2022/10/01 02:21:27;;;;;;;0.00;0.00;;;;;;;9.83;83.81;99473.03;5013131;28;20490;-76
2022/10/01 02:24:18;;;;;;;0.77;0.77;;;;;;;10.11;82.29;99476.06;5012992;28;20225;-76
2022/10/01 02:26:47;;;;;;;1.00;0.90;;;;;;;10.27;80.89;99450.94;5012730;28;20196;-76
2022/10/01 02:29:17;;;;;;;1.17;1.10;;;;;;;10.30;80.26;99463.94;5012904;28;20259;-76
2022/10/01 02:31:46;;;;;;;0.00;0.00;;;;;;;10.33;79.68;99457.81;5012763;28;20901;-76
2022/10/01 02:34:14;;;;;;;0.97;0.97;;;;;;;10.37;79.41;99454.06;5013037;28;20180;-76
2022/10/01 02:36:44;;;;;;;1.17;1.17;;;;;;;10.39;79.26;99446.31;5012507;28;20168;-76
2022/10/01 02:39:13;;;;;;;0.00;0.00;;;;;;;10.48;79.17;99440.00;5012803;28;20196;-76
2022/10/01 02:41:41;;;;;;;0.50;0.50;;;;;;;10.55;78.19;99441.03;4995013;28;20636;-76
2022/10/01 02:44:14;;;;;;;0.10;0.10;;;;;;;10.53;78.03;99440.59;5012439;28;20176;-75
2022/10/01 02:46:59;;;;;;;0.00;0.00;;;;;;;10.50;78.17;99427.59;5012322;28;20735;-76
2022/10/01 02:49:27;;;;;;;0.80;0.80;;;;;;;10.57;78.42;99436.06;4994969;28;20506;-76
2022/10/01 02:52:05;;;;;;;0.40;0.40;;;;;;;10.57;78.53;99430.59;5012482;28;20169;-76
2022/10/01 02:54:48;;;;;;;0.00;0.00;;;;;;;10.54;78.21;99414.06;5012388;28;20186;-76
2022/10/01 02:57:28;;;;;;;0.00;0.00;;;;;;;10.57;78.07;99416.94;5012267;28;20180;-77
2022/10/01 02:59:57;;;;;;;0.23;0.23;;;;;;;10.67;77.43;99402.06;5012854;28;20179;-76
2022/10/01 03:02:28;;;;;;;0.40;0.40;;;;;;;10.70;77.59;99398.63;4994486;28;20529;-75
2022/10/01 03:04:57;;;;;;;0.50;0.37;;;;;;;10.73;76.74;99396.06;5012203;28;20176;-76
2022/10/01 03:07:28;;;;;;;0.10;0.10;;;;;;;10.69;77.48;99384.19;5011808;28;20208;-77
2022/10/01 03:09:54;;;;;;;0.00;0.00;;;;;;;10.67;77.26;99370.06;5012243;28;20219;-76
2022/10/01 03:12:20;;;;;;;0.00;0.00;;;;;;;10.72;77.10;99369.88;5012160;28;20211;-76
2022/10/01 03:14:46;;;;;;;0.97;0.97;;;;;;;10.71;77.32;99364.75;5012095;28;20207;-76
2022/10/01 03:17:12;;;;;;;0.00;0.00;;;;;;;10.73;77.79;99357.00;5011700;28;20541;-75
2022/10/01 03:19:38;;;;;;;0.30;0.30;;;;;;;10.72;77.46;99358.94;5012038;28;20691;-76
2022/10/01 03:22:03;;;;;;;0.00;0.00;;;;;;;10.79;77.36;99365.78;5011937;28;20177;-76
2022/10/01 03:24:29;;;;;;;0.10;0.10;;;;;;;10.77;77.10;99354.38;5011950;28;20208;-76
2022/10/01 03:26:55;;;;;;;0.00;0.00;;;;;;;10.80;77.06;99351.78;4993208;28;20208;-76
2022/10/01 03:29:22;;;;;;;1.07;1.07;;;;;;;10.86;76.99;99346.91;5011844;28;20198;-76
2022/10/01 03:31:47;;;;;;;0.40;0.40;;;;;;;10.83;77.24;99344.81;5012154;28;20175;-76
2022/10/01 03:34:12;;;;;;;0.00;0.00;;;;;;;10.84;77.21;99347.22;5011699;28;20243;-77
2022/10/01 03:36:38;;;;;;;0.00;0.00;;;;;;;10.83;76.91;99342.88;5011427;28;20250;-77
2022/10/01 03:39:03;;;;;;;0.20;0.20;;;;;;;10.84;77.05;99346.41;5011811;28;20168;-77
2022/10/01 03:41:28;;;;;;;1.90;0.60;;;;;;;10.89;77.33;99335.28;5011535;28;20266;-76
2022/10/01 03:43:53;;;;;;;0.00;0.00;;;;;;;10.93;76.95;99339.72;5011653;28;20202;-76
2022/10/01 03:46:19;;;;;;;0.20;0.20;;;;;;;10.93;77.16;99328.78;5011093;28;20207;-75
2022/10/01 03:48:44;;;;;;;0.00;0.00;;;;;;;10.89;76.92;99327.09;4993885;28;20192;-76
2022/10/01 03:51:09;;;;;;;0.07;0.07;;;;;;;10.89;77.13;99327.88;5011327;28;20275;-76
2022/10/01 03:53:35;;;;;;;0.00;0.00;;;;;;;10.90;77.02;99323.22;5011497;28;20181;-76
2022/10/01 03:56:00;;;;;;;0.00;0.00;;;;;;;10.87;77.14;99323.91;5011146;28;20208;-77
2022/10/01 03:58:26;;;;;;;0.00;0.00;;;;;;;10.92;77.62;99324.47;5011284;28;20180;-76
2022/10/01 04:00:54;;;;;;;0.23;0.23;;;;;;;10.89;76.89;99321.63;5011257;28;20668;-76
2022/10/01 04:03:19;;;;;;;0.10;0.10;;;;;;;10.86;77.47;99319.56;4993525;28;20196;-76
2022/10/01 04:05:45;;;;;;;3.30;0.50;;;;;;;10.90;77.63;99317.75;4993088;28;20211;-76
2022/10/01 04:08:11;;;;;;;0.00;0.00;;;;;;;10.96;76.80;99325.38;5011413;28;20179;-76
2022/10/01 04:10:36;;;;;;;1.37;1.27;;;;;;;10.98;77.01;99325.03;5011007;28;20659;-76
2022/10/01 04:13:02;;;;;;;0.17;0.17;;;;;;;10.89;77.53;99316.16;5011134;28;20176;-76
2022/10/01 04:15:28;;;;;;;0.00;0.00;;;;;;;10.86;77.73;99312.19;5011058;28;20177;-76
2022/10/01 04:17:53;;;;;;;0.00;0.00;;;;;;;10.94;76.98;99313.97;5010664;28;20275;-76
2022/10/01 04:20:19;;;;;;;0.00;0.00;;;;;;;10.92;77.43;99316.25;5010778;28;20268;-76
2022/10/01 04:22:45;;;;;;;3.13;1.47;;;;;;;10.91;77.73;99308.41;5011114;28;20187;-76
2022/10/01 04:25:11;;;;;;;0.83;0.50;;;;;;;10.92;78.25;99297.13;5011007;28;20202;-75
2022/10/01 04:27:37;;;;;;;0.67;0.67;;;;;;;10.86;79.26;99300.44;5010623;28;20208;-76
2022/10/01 04:30:05;;;;;;;0.00;0.00;;;;;;;10.83;79.58;99290.97;5010962;28;20235;-75
2022/10/01 04:32:30;;;;;;;0.07;0.07;;;;;;;10.84;79.86;99294.50;5010638;28;20181;-76
2022/10/01 04:34:55;;;;;;;0.63;0.53;;;;;;;10.86;79.57;99284.84;5010680;28;20176;-76
2022/10/01 04:37:22;;;;;;;0.00;0.00;;;;;;;10.68;81.50;99278.00;5010501;28;20191;-76
2022/10/01 04:39:47;;;;;;;0.20;0.20;;;;;;;10.71;82.71;99280.88;5010636;28;20279;-76
2022/10/01 04:42:13;;;;;;;0.00;0.00;;;;;;;10.68;82.63;99267.06;5010596;28;20271;-76
2022/10/01 04:44:39;;;;;;;0.33;0.33;;;;;;;10.60;84.99;99268.78;5010612;28;20180;-76
2022/10/01 04:47:05;;;;;;;0.73;0.57;;;;;;;10.54;85.65;99261.13;5010263;28;20291;-76
2022/10/01 04:49:32;;;;;;;13.27;0.70;;;;;;;10.47;87.05;99245.31;5010816;28;20208;-76
2022/10/01 04:51:58;;;;;;;6.20;1.03;;;;;;;10.41;87.84;99243.94;5010735;28;20172;-76
2022/10/01 04:54:24;;;;;;;0.43;0.43;;;;;;;10.33;89.48;99240.19;5010580;28;20636;-76
2022/10/01 04:56:49;;;;;;;0.00;0.00;;;;;;;10.18;90.94;99220.91;5010380;28;20234;-76
2022/10/01 04:59:14;;;;;;;0.23;0.23;;;;;;;10.17;92.18;99216.59;5010418;28;20168;-76
2022/10/01 05:01:43;;;;;;;0.00;0.00;;;;;;;10.15;93.50;99214.22;5010499;28;20208;-75
2022/10/01 05:04:08;;;;;;;0.63;0.63;;;;;;;10.09;94.48;99208.16;5010320;28;20602;-76
2022/10/01 05:06:33;;;;;;;0.47;0.47;;;;;;;9.97;96.31;99204.59;5010247;28;20212;-76
2022/10/01 05:08:59;;;;;;;0.23;0.23;;;;;;;9.93;97.38;99193.56;5010833;28;20176;-76
2022/10/01 05:11:24;;;;;;;0.00;0.00;;;;;;;9.89;98.55;99189.13;5010839;28;20177;-75
2022/10/01 05:13:50;;;;;;;0.10;0.10;;;;;;;9.83;99.64;99188.53;5010491;28;20179;-76
2022/10/01 05:16:15;;;;;;;0.10;0.10;;;;;;;9.80;100.00;99183.75;5010328;28;20173;-75
2022/10/01 05:18:41;;;;;;;0.23;0.23;;;;;;;9.76;100.00;99178.19;5010554;28;20550;-76
2022/10/01 05:21:08;;;;;;;3.10;0.70;;;;;;;9.73;100.00;99175.34;5010208;28;20169;-76
2022/10/01 05:23:34;;;;;;;3.37;1.70;;;;;;;9.63;100.00;99170.31;5010354;28;20171;-76
2022/10/01 05:25:59;;;;;;;0.10;0.10;;;;;;;9.63;100.00;99170.31;5010017;28;20232;-76
2022/10/01 05:28:26;;;;;;;0.00;0.00;;;;;;;9.60;100.00;99176.44;5010220;28;20279;-76
2022/10/01 05:30:52;;;;;;;0.73;0.73;;;;;;;9.59;100.00;99159.28;4992453;28;20659;-76
2022/10/01 05:33:17;;;;;;;0.13;0.13;;;;;;;9.54;100.00;99156.75;5010202;28;20177;-76
2022/10/01 05:35:43;;;;;;;0.63;0.63;;;;;;;9.42;100.00;99160.25;4992337;28;20173;-76
2022/10/01 05:38:09;;;;;;;0.00;0.00;;;;;;;9.42;100.00;99156.72;5010072;28;20176;-76
2022/10/01 05:40:34;;;;;;;0.17;0.17;;;;;;;9.41;100.00;99152.41;5010313;28;20172;-76
2022/10/01 05:43:01;;;;;;;0.47;0.37;;;;;;;9.41;100.00;99145.03;5010050;28;20687;-76
2022/10/01 05:45:28;;;;;;;0.10;0.10;;;;;;;9.33;100.00;99140.44;5010010;28;20180;-76
2022/10/01 05:48:02;;;;;;;8.90;1.17;;;;;;;9.40;100.00;99151.63;5009858;28;20279;-76
2022/10/01 05:50:32;;;;;;;0.40;0.20;;;;;;;9.36;100.00;99145.22;5012412;28;20172;-76
2022/10/01 05:52:59;;;;;;;0.77;0.77;;;;;;;9.32;100.00;99141.56;5014179;28;20192;-77
2022/10/01 05:55:24;;;;;;;0.10;0.10;;;;;;;9.37;100.00;99143.28;5014088;28;20455;-76
2022/10/01 05:58:09;;;;;;;0.77;0.70;;;;;;;9.35;100.00;99143.63;5013253;28;20268;-76
2022/10/01 06:00:35;;;;;;;0.97;0.97;;;;;;;9.39;100.00;99143.75;5013411;28;20467;-76
2022/10/01 06:03:02;;;;;;;0.00;0.00;;;;;;;9.34;100.00;99143.97;4995678;28;20526;-76
2022/10/01 06:05:29;;;;;;;0.20;0.20;;;;;;;9.31;100.00;99145.44;4995475;28;20176;-76
2022/10/01 06:07:55;;;;;;;4.53;2.40;;;;;;;9.33;100.00;99137.72;4995542;28;20195;-77
2022/10/01 06:10:21;;;;;;;0.00;0.00;;;;;;;9.32;100.00;99136.13;4995578;28;20182;-77
2022/10/01 06:12:47;;;;;;;0.00;0.00;;;;;;;9.33;100.00;99129.53;5013296;28;20177;-76
2022/10/01 06:15:14;;;;;;;0.50;0.40;;;;;;;9.32;100.00;99127.16;5013276;28;20516;-76
2022/10/01 06:17:43;;;;;;;2.10;1.40;;;;;;;9.28;100.00;99128.97;5013046;28;20198;-76
2022/10/01 06:20:14;;;;;;;0.07;0.07;;;;;;;9.29;100.00;99134.06;4995451;28;20239;-76
2022/10/01 06:22:41;;;;;;;0.00;0.00;;;;;;;9.25;100.00;99127.69;5013107;28;20255;-76
2022/10/01 06:25:09;;;;;;;1.60;1.50;;;;;;;9.27;100.00;99130.09;5013137;28;20207;-76
2022/10/01 06:27:34;;;;;;;0.10;0.10;;;;;;;9.28;100.00;99118.06;5012736;28;20208;-76
2022/10/01 06:30:00;;;;;;;0.00;0.00;;;;;;;9.26;100.00;99115.66;5013000;28;20533;-77
2022/10/01 06:32:25;;;;;;;0.00;0.00;;;;;;;9.30;100.00;99113.84;5012811;28;20172;-77
2022/10/01 06:34:51;;;;;;;0.00;0.00;;;;;;;9.32;100.00;99113.53;5012917;28;20193;-76
2022/10/01 06:37:16;;;;;;;0.90;0.90;;;;;;;9.33;100.00;99110.47;5012515;28;20185;-76
2022/10/01 06:39:43;;;;;;;0.30;0.13;;;;;;;9.38;100.00;99106.72;5012805;28;20539;-77
2022/10/01 06:42:08;;;;;;;0.00;0.00;;;;;;;9.38;100.00;99093.09;5012972;28;20208;-77
2022/10/01 06:44:34;;;;;;;0.00;0.00;;;;;;;9.38;100.00;99095.81;5013208;28;20641;-77
2022/10/01 06:46:59;;;;;;;0.00;0.00;;;;;;;9.38;100.00;99093.88;5012361;28;20496;-76
2022/10/01 06:49:25;;;;;;;0.00;0.00;;;;;;;9.46;100.00;99093.00;5012648;28;20181;-76
2022/10/01 06:54:34;;;;;;;0.10;0.10;;;;;;;9.45;100.00;99085.16;5013506;28;20180;-76
2022/10/01 06:56:59;;;;;;;0.00;0.00;;;;;;;9.45;100.00;99082.44;5018069;28;20172;-76
2022/10/01 06:59:25;;;;;;;0.30;0.30;;;;;;;9.51;100.00;99070.97;5012701;28;20702;-76
2022/10/01 07:01:52;;;;;;;0.00;0.00;;;;;;;9.46;100.00;99073.13;5011482;28;20172;-76
2022/10/01 07:04:18;;;;;;;0.30;0.30;;;;;;;9.52;100.00;99069.03;5012304;28;20271;-76
2022/10/01 07:06:44;;;;;;;1.27;0.80;;;;;;;9.52;100.00;99088.91;5012629;28;20216;-76
2022/10/01 07:09:09;;;;;;;1.00;1.00;;;;;;;9.53;100.00;99074.16;5012699;28;20588;-77
2022/10/01 07:11:38;;;;;;;1.37;1.27;;;;;;;9.56;100.00;99075.44;5012556;28;20173;-76
2022/10/01 07:14:03;;;;;;;0.80;0.80;;;;;;;9.52;100.00;99067.13;5012246;28;20307;-76
2022/10/01 07:16:28;;;;;;;0.00;0.00;;;;;;;9.53;100.00;99057.78;5011824;28;20660;-76
2022/10/01 07:18:53;;;;;;;0.27;0.27;;;;;;;9.53;100.00;99063.25;5012456;28;20177;-76
2022/10/01 07:21:19;;;;;;;0.00;0.00;;;;;;;9.54;100.00;99064.03;5012370;28;20604;-76
2022/10/01 07:23:44;;;;;;;0.10;0.10;;;;;;;9.55;100.00;99057.50;5012257;28;20224;-76
2022/10/01 07:26:09;;;;;;;0.37;0.37;;;;;;;9.55;100.00;99060.22;5011677;28;20208;-76
2022/10/01 07:28:34;;;;;;;0.00;0.00;;;;;;;9.53;100.00;99060.53;5012144;28;20172;-76
2022/10/01 07:31:05;;;;;;;4.40;1.70;;;;;;;9.58;100.00;99064.19;5011728;28;20168;-76
2022/10/01 07:33:31;;;;;;;0.27;0.27;;;;;;;9.59;100.00;99057.59;5011804;28;20223;-76
2022/10/01 07:36:00;;;;;;;0.67;0.67;;;;;;;9.62;100.00;99063.16;5011569;28;20180;-76
2022/10/01 07:38:25;;;;;;;0.10;0.07;;;;;;;9.59;100.00;99058.41;5011693;28;20175;-76
2022/10/01 07:40:52;;;;;;;0.27;0.27;;;;;;;9.59;100.00;99063.06;5011914;28;20177;-76
2022/10/01 07:43:18;;;;;;;0.10;0.10;;;;;;;9.59;100.00;99065.78;5011711;28;20172;-77
2022/10/01 07:45:45;;;;;;;0.37;0.37;;;;;;;9.62;100.00;99056.91;5011302;28;20177;-75
2022/10/01 07:48:13;;;;;;;0.47;0.47;;;;;;;9.64;100.00;99054.63;5011363;28;20183;-76
2022/10/01 07:50:41;;;;;;;0.50;0.50;;;;;;;9.65;100.00;99059.75;5011467;28;20181;-76
2022/10/01 07:53:06;;;;;;;0.20;0.20;;;;;;;9.64;100.00;99066.34;5011663;28;20172;-77
2022/10/01 07:55:31;;;;;;;0.63;0.63;;;;;;;9.67;100.00;99053.97;5011546;28;20532;-76
2022/10/01 07:58:00;;;;;;;0.87;0.87;;;;;;;9.66;100.00;99060.53;5011333;28;20173;-76
2022/10/01 08:00:25;;;;;;;0.10;0.10;;;;;;;9.68;100.00;99058.28;5015114;28;20663;-76
2022/10/01 08:02:53;;;;;;;1.23;0.60;;;;;;;9.73;100.00;99052.63;5011288;28;20188;-75
2022/10/01 08:05:20;;;;;;;0.00;0.00;;;;;;;9.70;100.00;99043.19;4993857;28;20181;-75
2022/10/01 08:07:47;;;;;;;0.10;0.10;;;;;;;9.76;100.00;99047.28;5011016;28;20200;-76
2022/10/01 08:10:13;;;;;;;4.43;0.50;;;;;;;9.80;100.00;99050.91;5011288;28;20655;-75
2022/10/01 08:12:41;;;;;;;0.77;0.70;;;;;;;9.80;100.00;99050.91;5010822;28;20554;-76
2022/10/01 08:15:09;;;;;;;0.77;0.77;;;;;;;9.83;100.00;99043.97;5011032;28;20629;-76
2022/10/01 08:17:34;;;;;;;0.73;0.73;;;;;;;9.86;100.00;99061.59;5010813;28;20704;-75
2022/10/01 08:20:00;;;;;;;0.43;0.43;;;;;;;9.91;100.00;99042.28;5011078;28;20255;-75
2022/10/01 08:22:25;;;;;;;0.00;0.00;;;;;;;9.91;100.00;99043.06;5010905;28;20632;-75
2022/10/01 08:24:51;;;;;;;0.10;0.10;;;;;;;9.96;100.00;99045.56;5010932;28;20199;-75
2022/10/01 08:27:16;;;;;;;0.23;0.23;;;;;;;9.99;100.00;99044.91;5010651;28;20211;-76
2022/10/01 08:29:42;;;;;;;0.30;0.30;;;;;;;10.02;100.00;99055.13;4993268;28;20177;-75
2022/10/01 08:32:07;;;;;;;0.23;0.10;;;;;;;10.03;100.00;99053.19;5010901;28;20172;-75
2022/10/01 08:34:33;;;;;;;0.00;0.00;;;;;;;10.07;100.00;99057.63;5010834;28;20176;-75
2022/10/01 08:36:59;;;;;;;0.70;0.70;;;;;;;10.09;100.00;99058.06;5010497;28;20168;-75
2022/10/01 08:39:24;;;;;;;0.10;0.10;;;;;;;10.10;100.00;99067.03;5010942;28;20176;-75
2022/10/01 08:42:27;;;;;;;0.40;0.40;;;;;;;10.11;100.00;99065.91;5010686;28;20173;-74
2022/10/01 08:44:52;;;;;;;0.10;0.10;;;;;;;10.14;100.00;99057.06;5010800;28;20707;-74
2022/10/01 08:47:33;;;;;;;0.30;0.30;;;;;;;10.20;100.00;99063.06;4992627;28;20307;-75
2022/10/01 08:50:04;;;;;;;0.50;0.50;;;;;;;10.24;100.00;99072.19;5010735;28;20655;-74
2022/10/01 08:52:35;;;;;;;0.10;0.10;;;;;;;10.25;100.00;99073.78;4993144;28;20586;-75
2022/10/01 08:55:07;;;;;;;0.00;0.00;;;;;;;10.25;100.00;99080.03;5010572;28;20176;-75
2022/10/01 08:57:38;;;;;;;0.10;0.10;;;;;;;10.28;100.00;99078.56;5010312;28;20260;-77
2022/10/01 09:00:09;;;;;;;0.00;0.00;;;;;;;10.28;100.00;99075.84;5010663;28;20172;-76
2022/10/01 09:02:39;;;;;;;0.10;0.10;;;;;;;10.31;100.00;99075.16;5010448;28;20180;-76
2022/10/01 09:05:19;;;;;;;0.40;0.40;;;;;;;10.27;100.00;99066.03;4993019;28;20180;-76
2022/10/01 09:07:50;;;;;;;0.20;0.00;;;;;;;10.32;100.00;99079.47;4992596;28;20204;-76
2022/10/01 09:10:23;;;;;;;0.50;0.30;;;;;;;10.29;100.00;99078.22;5010445;28;20609;-76
2022/10/01 09:13:07;;;;;;;0.30;0.30;;;;;;;10.32;100.00;99076.75;5010670;28;20271;-76
2022/10/01 09:15:50;;;;;;;0.20;0.20;;;;;;;10.39;100.00;99093.31;5010271;28;20183;-76
2022/10/01 09:18:33;;;;;;;0.00;0.00;;;;;;;10.35;100.00;99089.69;5010361;28;20184;-77
2022/10/01 09:20:59;;;;;;;0.10;0.10;;;;;;;10.36;100.00;99083.88;5010410;28;20203;-77
2022/10/01 09:23:30;;;;;;;0.43;0.30;;;;;;;10.33;100.00;99094.72;5010638;28;20176;-77
2022/10/01 09:25:58;;;;;;;0.40;0.40;;;;;;;10.34;100.00;99083.44;5013296;28;20288;-77
2022/10/01 09:28:28;;;;;;;0.37;0.37;;;;;;;10.35;100.00;99089.69;5014083;28;20179;-77
2022/10/01 09:30:59;;;;;;;0.00;0.00;;;;;;;10.43;100.00;99097.78;5014081;28;20176;-78
2022/10/01 09:33:36;;;;;;;0.63;0.63;;;;;;;10.48;100.00;99102.19;5014457;28;20626;-77
2022/10/01 09:36:02;;;;;;;0.10;0.10;;;;;;;10.56;100.00;99095.81;5013914;28;20206;-78
2022/10/01 09:39:13;;;;;;;0.40;0.40;;;;;;;10.61;100.00;99097.50;5014090;28;20177;-77
2022/10/01 09:41:39;;;;;;;0.20;0.20;;;;;;;10.62;100.00;99096.38;5013942;28;20191;-77
2022/10/01 09:44:09;;;;;;;0.00;0.00;;;;;;;10.65;100.00;99099.19;5014052;28;20252;-77
2022/10/01 09:46:35;;;;;;;0.17;0.17;;;;;;;10.71;100.00;99119.69;5013611;28;20602;-77
2022/10/01 09:49:07;;;;;;;0.13;0.13;;;;;;;10.73;100.00;99111.94;5013867;28;20279;-79
2022/10/01 09:51:38;;;;;;;0.37;0.37;;;;;;;10.80;100.00;99116.81;5013921;28;20749;-78
2022/10/01 09:54:31;;;;;;;0.40;0.40;;;;;;;10.83;100.00;99116.13;5014612;28;20181;-77
2022/10/01 09:57:13;;;;;;;0.20;0.20;;;;;;;10.87;100.00;99122.50;5014460;28;20180;-76
2022/10/01 09:59:53;;;;;;;0.40;0.40;;;;;;;10.83;100.00;99124.31;5013622;28;20287;-78
2022/10/01 10:02:26;;;;;;;0.10;0.10;;;;;;;10.89;100.00;99128.41;5013556;28;20172;-78
2022/10/01 10:05:05;;;;;;;0.20;0.20;;;;;;;10.92;100.00;99124.97;5013615;28;20283;-78
2022/10/01 10:07:33;;;;;;;0.00;0.00;;;;;;;10.94;100.00;99128.16;5012999;28;20266;-77
2022/10/01 10:10:34;;;;;;;0.67;0.67;;;;;;;10.98;100.00;99133.72;5013949;28;20226;-77
2022/10/01 10:13:09;;;;;;;4.03;0.57;;;;;;;10.97;100.00;99132.94;5002830;28;20193;-77
2022/10/01 10:15:40;;;;;;;0.60;0.40;;;;;;;10.98;100.00;99136.44;5013170;28;20164;-77
2022/10/01 10:18:11;;;;;;;0.33;0.33;;;;;;;11.01;100.00;99149.44;5013074;28;20169;-78
2022/10/01 10:20:42;;;;;;;0.20;0.20;;;;;;;11.01;100.00;99143.97;5013121;28;20204;-78
2022/10/01 10:23:15;;;;;;;0.10;0.10;;;;;;;11.09;100.00;99150.44;5013190;28;20180;-78
2022/10/01 10:25:41;;;;;;;2.97;0.47;;;;;;;11.14;100.00;99145.53;5012814;28;20180;-78
2022/10/01 10:28:19;;;;;;;0.27;0.27;;;;;;;11.17;100.00;99144.03;5012956;28;20233;-78
2022/10/01 10:30:45;;;;;;;0.20;0.17;;;;;;;11.19;100.00;99145.28;5012960;28;20259;-78
2022/10/01 10:33:13;;;;;;;0.30;0.30;;;;;;;11.27;100.00;99149.78;5013088;28;20259;-77
2022/10/01 10:35:39;;;;;;;3.23;0.20;;;;;;;11.41;100.00;99151.34;5012744;28;20169;-76
2022/10/01 10:38:04;;;;;;;0.10;0.10;;;;;;;11.47;100.00;99148.03;5012772;28;20177;-77
2022/10/01 10:40:40;;;;;;;0.67;0.57;;;;;;;11.49;100.00;99153.94;5013015;28;20263;-77
2022/10/01 10:43:21;;;;;;;0.20;0.20;;;;;;;11.49;100.00;99150.41;5012802;28;20251;-77
2022/10/01 10:45:53;;;;;;;1.93;0.63;;;;;;;11.50;100.00;99160.19;5012473;28;20176;-77
2022/10/01 10:48:19;;;;;;;0.30;0.30;;;;;;;11.50;100.00;99160.19;5012661;28;20204;-78
2022/10/01 10:50:45;;;;;;;0.37;0.37;;;;;;;11.57;100.00;99142.06;5012704;28;20211;-77
2022/10/01 10:53:23;;;;;;;0.20;0.20;;;;;;;11.61;100.00;99142.16;5012631;28;20212;-77
2022/10/01 10:56:02;;;;;;;0.30;0.30;;;;;;;11.69;100.00;99143.91;5012694;28;20173;-77
2022/10/01 10:58:36;;;;;;;0.93;0.50;;;;;;;11.96;100.00;99147.78;4994910;28;20215;-76
2022/10/01 11:01:15;;;;;;;0.73;0.73;;;;;;;12.11;100.00;99157.13;5012569;28;20184;-77
2022/10/01 11:03:47;;;;;;;0.70;0.70;;;;;;;12.38;100.00;99166.41;5012349;28;20184;-78
2022/10/01 11:06:15;;;;;;;0.10;0.10;;;;;;;12.47;100.00;99161.56;5011783;28;20650;-77
2022/10/01 11:08:42;;;;;;;0.37;0.37;;;;;;;12.77;100.00;99165.38;5012608;28;20183;-78
2022/10/01 11:11:13;;;;;;;1.00;1.00;;;;;;;12.89;100.00;99159.00;5012184;28;20578;-76
2022/10/01 11:13:58;;;;;;;0.53;0.40;;;;;;;12.80;100.00;99163.88;5012213;28;20172;-77
2022/10/01 11:16:29;;;;;;;1.50;1.40;;;;;;;12.67;100.00;99171.41;5011775;28;20674;-77
2022/10/01 11:19:19;;;;;;;0.40;0.40;;;;;;;12.58;100.00;99179.00;5012066;28;20207;-78
2022/10/01 11:21:56;;;;;;;0.20;0.20;;;;;;;12.46;100.00;99168.19;4994388;28;20271;-78
2022/10/01 11:24:44;;;;;;;0.30;0.30;;;;;;;12.41;100.00;99173.91;5012178;28;20176;-78
2022/10/01 11:27:35;;;;;;;0.30;0.20;;;;;;;12.43;100.00;99188.84;5011558;28;20291;-78
2022/10/01 11:30:09;;;;;;;0.20;0.20;;;;;;;12.45;100.00;99185.78;4994350;28;20180;-78
2022/10/01 11:32:44;;;;;;;0.73;0.73;;;;;;;12.56;100.00;99184.06;5011910;28;20176;-77
2022/10/01 11:35:44;;;;;;;0.43;0.43;;;;;;;12.68;100.00;99183.97;4994164;28;20198;-79
2022/10/01 11:38:34;;;;;;;0.43;0.43;;;;;;;12.90;100.00;99178.97;5011926;28;20176;-77
2022/10/01 11:41:08;;;;;;;0.37;0.37;;;;;;;13.04;100.00;99180.09;4994012;28;20226;-77
2022/10/01 11:43:39;;;;;;;0.57;0.57;;;;;;;13.24;100.00;99188.34;5011629;28;20192;-76
2022/10/01 11:46:10;;;;;;;0.97;0.60;;;;;;;13.38;100.00;99186.69;5011727;28;20196;-78
2022/10/01 11:48:50;;;;;;;7.20;1.37;;;;;;;13.45;100.00;99194.25;5011174;28;20223;-77